sensor_id;sensor_type;location;lat;lon;timestamp;temperature;humidity
10294;DHT22;5192;50.328;7.610;2023-04-15T00:00:19;3.70;8.00
10294;DHT22;5192;50.328;7.610;2023-04-15T00:02:46;3.70;8.00
10294;DHT22;5192;50.328;7.610;2023-04-15T00:05:14;3.70;9.60
10294;DHT22;5192;50.328;7.610;2023-04-15T00:07:41;3.70;11.60
10294;DHT22;5192;50.328;7.610;2023-04-15T00:10:07;3.60;12.30
10294;DHT22;5192;50.328;7.610;2023-04-15T00:12:33;3.60;10.30
10294;DHT22;5192;50.328;7.610;2023-04-15T00:14:59;3.60;9.80
10294;DHT22;5192;50.328;7.610;2023-04-15T00:17:26;3.50;10.20
10294;DHT22;5192;50.328;7.610;2023-04-15T00:19:54;3.50;10.20
10294;DHT22;5192;50.328;7.610;2023-04-15T00:22:22;3.50;11.70
10294;DHT22;5192;50.328;7.610;2023-04-15T00:24:48;3.40;12.50
10294;DHT22;5192;50.328;7.610;2023-04-15T00:27:17;3.40;12.60
10294;DHT22;5192;50.328;7.610;2023-04-15T00:29:45;3.30;13.90
10294;DHT22;5192;50.328;7.610;2023-04-15T00:32:12;3.30;17.70
10294;DHT22;5192;50.328;7.610;2023-04-15T00:34:40;3.40;19.90
10294;DHT22;5192;50.328;7.610;2023-04-15T00:37:08;3.30;20.40
10294;DHT22;5192;50.328;7.610;2023-04-15T00:39:35;3.30;21.50
10294;DHT22;5192;50.328;7.610;2023-04-15T00:42:03;3.30;22.30
10294;DHT22;5192;50.328;7.610;2023-04-15T00:44:31;3.20;21.10
10294;DHT22;5192;50.328;7.610;2023-04-15T00:46:59;3.20;20.30
10294;DHT22;5192;50.328;7.610;2023-04-15T00:49:26;3.10;20.00
10294;DHT22;5192;50.328;7.610;2023-04-15T00:51:54;3.10;20.40
10294;DHT22;5192;50.328;7.610;2023-04-15T00:54:22;3.00;21.30
10294;DHT22;5192;50.328;7.610;2023-04-15T00:56:52;3.00;22.30
10294;DHT22;5192;50.328;7.610;2023-04-15T00:59:20;3.00;22.40
10294;DHT22;5192;50.328;7.610;2023-04-15T01:01:48;2.90;22.30
10294;DHT22;5192;50.328;7.610;2023-04-15T01:04:16;2.90;20.60
10294;DHT22;5192;50.328;7.610;2023-04-15T01:06:43;2.80;20.00
10294;DHT22;5192;50.328;7.610;2023-04-15T01:09:10;2.80;20.70
10294;DHT22;5192;50.328;7.610;2023-04-15T01:11:37;2.80;23.40
10294;DHT22;5192;50.328;7.610;2023-04-15T01:14:06;2.90;24.40
10294;DHT22;5192;50.328;7.610;2023-04-15T01:16:36;2.90;25.40
10294;DHT22;5192;50.328;7.610;2023-04-15T01:19:07;2.80;25.60
10294;DHT22;5192;50.328;7.610;2023-04-15T01:21:37;2.80;25.50
10294;DHT22;5192;50.328;7.610;2023-04-15T01:24:12;2.80;26.70
10294;DHT22;5192;50.328;7.610;2023-04-15T01:26:40;2.70;27.50
10294;DHT22;5192;50.328;7.610;2023-04-15T01:29:08;2.70;28.30
10294;DHT22;5192;50.328;7.610;2023-04-15T01:31:35;2.70;28.90
10294;DHT22;5192;50.328;7.610;2023-04-15T01:34:02;2.70;29.40
10294;DHT22;5192;50.328;7.610;2023-04-15T01:36:29;2.60;29.30
10294;DHT22;5192;50.328;7.610;2023-04-15T01:38:57;2.60;29.00
10294;DHT22;5192;50.328;7.610;2023-04-15T01:41:26;2.60;28.90
10294;DHT22;5192;50.328;7.610;2023-04-15T01:43:54;2.60;27.90
10294;DHT22;5192;50.328;7.610;2023-04-15T01:46:24;2.50;27.90
10294;DHT22;5192;50.328;7.610;2023-04-15T01:48:53;2.50;29.20
10294;DHT22;5192;50.328;7.610;2023-04-15T01:51:21;2.50;29.00
10294;DHT22;5192;50.328;7.610;2023-04-15T01:53:49;2.50;28.10
10294;DHT22;5192;50.328;7.610;2023-04-15T01:56:15;2.50;27.80
10294;DHT22;5192;50.328;7.610;2023-04-15T01:58:42;2.50;27.60
10294;DHT22;5192;50.328;7.610;2023-04-15T02:01:08;2.50;28.20
10294;DHT22;5192;50.328;7.610;2023-04-15T02:03:37;2.50;28.80
10294;DHT22;5192;50.328;7.610;2023-04-15T02:06:05;2.50;30.80
10294;DHT22;5192;50.328;7.610;2023-04-15T02:08:32;2.50;31.30
10294;DHT22;5192;50.328;7.610;2023-04-15T02:10:59;2.50;31.50
10294;DHT22;5192;50.328;7.610;2023-04-15T02:13:26;2.50;31.50
10294;DHT22;5192;50.328;7.610;2023-04-15T02:15:53;2.50;31.70
10294;DHT22;5192;50.328;7.610;2023-04-15T02:18:24;2.50;32.30
10294;DHT22;5192;50.328;7.610;2023-04-15T02:20:51;2.40;32.00
10294;DHT22;5192;50.328;7.610;2023-04-15T02:23:18;2.40;32.10
10294;DHT22;5192;50.328;7.610;2023-04-15T02:25:45;2.40;32.80
10294;DHT22;5192;50.328;7.610;2023-04-15T02:28:13;2.50;33.00
10294;DHT22;5192;50.328;7.610;2023-04-15T02:30:40;2.50;33.40
10294;DHT22;5192;50.328;7.610;2023-04-15T02:33:07;2.40;32.90
10294;DHT22;5192;50.328;7.610;2023-04-15T02:35:33;2.40;34.00
10294;DHT22;5192;50.328;7.610;2023-04-15T02:38:03;2.40;34.40
10294;DHT22;5192;50.328;7.610;2023-04-15T02:40:30;2.30;35.10
10294;DHT22;5192;50.328;7.610;2023-04-15T02:42:58;2.30;35.70
10294;DHT22;5192;50.328;7.610;2023-04-15T02:45:26;2.30;36.50
10294;DHT22;5192;50.328;7.610;2023-04-15T02:47:55;2.30;37.00
10294;DHT22;5192;50.328;7.610;2023-04-15T02:50:21;2.20;37.20
10294;DHT22;5192;50.328;7.610;2023-04-15T02:52:50;2.20;37.20
10294;DHT22;5192;50.328;7.610;2023-04-15T02:55:18;2.10;37.10
10294;DHT22;5192;50.328;7.610;2023-04-15T02:57:51;2.10;38.40
10294;DHT22;5192;50.328;7.610;2023-04-15T03:00:18;2.10;38.80
10294;DHT22;5192;50.328;7.610;2023-04-15T03:02:47;2.10;38.50
10294;DHT22;5192;50.328;7.610;2023-04-15T03:05:16;2.10;39.40
10294;DHT22;5192;50.328;7.610;2023-04-15T03:07:44;2.00;40.30
10294;DHT22;5192;50.328;7.610;2023-04-15T03:10:10;2.00;41.50
10294;DHT22;5192;50.328;7.610;2023-04-15T03:12:37;2.00;41.50
10294;DHT22;5192;50.328;7.610;2023-04-15T03:15:08;2.00;41.80
10294;DHT22;5192;50.328;7.610;2023-04-15T03:17:36;1.90;41.90
10294;DHT22;5192;50.328;7.610;2023-04-15T03:20:03;1.90;43.10
10294;DHT22;5192;50.328;7.610;2023-04-15T03:22:31;1.90;43.40
10294;DHT22;5192;50.328;7.610;2023-04-15T03:25:00;1.80;43.30
10294;DHT22;5192;50.328;7.610;2023-04-15T03:27:29;1.80;43.80
10294;DHT22;5192;50.328;7.610;2023-04-15T03:29:57;1.80;43.00
10294;DHT22;5192;50.328;7.610;2023-04-15T03:32:23;1.70;42.70
10294;DHT22;5192;50.328;7.610;2023-04-15T03:34:50;1.70;43.00
10294;DHT22;5192;50.328;7.610;2023-04-15T03:37:19;1.70;44.00
10294;DHT22;5192;50.328;7.610;2023-04-15T03:39:47;1.70;45.00
10294;DHT22;5192;50.328;7.610;2023-04-15T03:42:15;1.70;45.30
10294;DHT22;5192;50.328;7.610;2023-04-15T03:44:43;1.70;45.50
10294;DHT22;5192;50.328;7.610;2023-04-15T03:47:10;1.60;45.30
10294;DHT22;5192;50.328;7.610;2023-04-15T03:49:38;1.60;45.30
10294;DHT22;5192;50.328;7.610;2023-04-15T03:52:06;1.60;44.60
10294;DHT22;5192;50.328;7.610;2023-04-15T03:54:34;1.60;45.10
10294;DHT22;5192;50.328;7.610;2023-04-15T03:57:02;1.60;45.60
10294;DHT22;5192;50.328;7.610;2023-04-15T03:59:28;1.60;46.20
10294;DHT22;5192;50.328;7.610;2023-04-15T04:01:55;1.60;46.70
10294;DHT22;5192;50.328;7.610;2023-04-15T04:04:23;1.60;48.30
10294;DHT22;5192;50.328;7.610;2023-04-15T04:06:50;1.50;48.30
10294;DHT22;5192;50.328;7.610;2023-04-15T04:09:18;1.60;49.30
10294;DHT22;5192;50.328;7.610;2023-04-15T04:11:44;1.60;49.60
10294;DHT22;5192;50.328;7.610;2023-04-15T04:14:12;1.60;49.90
10294;DHT22;5192;50.328;7.610;2023-04-15T04:16:40;1.60;49.80
10294;DHT22;5192;50.328;7.610;2023-04-15T04:19:06;1.50;49.60
10294;DHT22;5192;50.328;7.610;2023-04-15T04:21:33;1.50;50.10
10294;DHT22;5192;50.328;7.610;2023-04-15T04:24:01;1.50;50.40
10294;DHT22;5192;50.328;7.610;2023-04-15T04:26:26;1.40;52.20
10294;DHT22;5192;50.328;7.610;2023-04-15T04:28:53;1.40;52.00
10294;DHT22;5192;50.328;7.610;2023-04-15T04:31:20;1.30;52.00
10294;DHT22;5192;50.328;7.610;2023-04-15T04:33:49;1.30;52.20
10294;DHT22;5192;50.328;7.610;2023-04-15T04:36:17;1.20;52.40
10294;DHT22;5192;50.328;7.610;2023-04-15T04:38:45;1.20;52.30
10294;DHT22;5192;50.328;7.610;2023-04-15T04:41:11;1.20;53.00
10294;DHT22;5192;50.328;7.610;2023-04-15T04:43:39;1.10;53.60
10294;DHT22;5192;50.328;7.610;2023-04-15T04:46:07;1.10;54.70
10294;DHT22;5192;50.328;7.610;2023-04-15T04:48:36;1.10;55.30
10294;DHT22;5192;50.328;7.610;2023-04-15T04:51:03;1.00;55.80
10294;DHT22;5192;50.328;7.610;2023-04-15T04:53:31;1.10;56.40
10294;DHT22;5192;50.328;7.610;2023-04-15T04:55:59;1.10;56.80
10294;DHT22;5192;50.328;7.610;2023-04-15T04:58:26;1.10;57.20
10294;DHT22;5192;50.328;7.610;2023-04-15T05:00:54;1.10;57.70
10294;DHT22;5192;50.328;7.610;2023-04-15T05:03:25;1.20;58.20
10294;DHT22;5192;50.328;7.610;2023-04-15T05:05:52;1.20;58.30
10294;DHT22;5192;50.328;7.610;2023-04-15T05:08:21;1.20;58.50
10294;DHT22;5192;50.328;7.610;2023-04-15T05:10:48;1.20;58.50
10294;DHT22;5192;50.328;7.610;2023-04-15T05:13:15;1.30;59.40
10294;DHT22;5192;50.328;7.610;2023-04-15T05:15:43;1.40;59.70
10294;DHT22;5192;50.328;7.610;2023-04-15T05:18:11;1.50;59.70
10294;DHT22;5192;50.328;7.610;2023-04-15T05:20:38;1.60;59.40
10294;DHT22;5192;50.328;7.610;2023-04-15T05:23:06;1.60;59.20
10294;DHT22;5192;50.328;7.610;2023-04-15T05:25:34;1.70;59.80
10294;DHT22;5192;50.328;7.610;2023-04-15T05:28:01;1.80;59.50
10294;DHT22;5192;50.328;7.610;2023-04-15T05:30:28;1.90;58.60
10294;DHT22;5192;50.328;7.610;2023-04-15T05:32:55;2.00;57.50
10294;DHT22;5192;50.328;7.610;2023-04-15T05:35:21;2.10;56.30
10294;DHT22;5192;50.328;7.610;2023-04-15T05:37:49;2.20;55.40
10294;DHT22;5192;50.328;7.610;2023-04-15T05:40:17;2.20;54.60
10294;DHT22;5192;50.328;7.610;2023-04-15T05:42:46;2.30;54.70
10294;DHT22;5192;50.328;7.610;2023-04-15T05:45:13;2.40;54.20
10294;DHT22;5192;50.328;7.610;2023-04-15T05:47:40;2.50;53.50
10294;DHT22;5192;50.328;7.610;2023-04-15T05:50:09;2.60;52.90
10294;DHT22;5192;50.328;7.610;2023-04-15T05:52:37;2.50;49.60
10294;DHT22;5192;50.328;7.610;2023-04-15T05:55:05;2.60;51.20
10294;DHT22;5192;50.328;7.610;2023-04-15T05:57:34;2.70;50.90
10294;DHT22;5192;50.328;7.610;2023-04-15T05:59:59;2.80;50.90
10294;DHT22;5192;50.328;7.610;2023-04-15T06:02:29;2.80;49.60
10294;DHT22;5192;50.328;7.610;2023-04-15T06:04:57;2.90;48.00
10294;DHT22;5192;50.328;7.610;2023-04-15T06:07:25;3.00;46.30
10294;DHT22;5192;50.328;7.610;2023-04-15T06:09:53;3.10;45.90
10294;DHT22;5192;50.328;7.610;2023-04-15T06:12:21;3.10;44.60
10294;DHT22;5192;50.328;7.610;2023-04-15T06:14:49;3.20;44.80
10294;DHT22;5192;50.328;7.610;2023-04-15T06:17:15;3.30;44.20
10294;DHT22;5192;50.328;7.610;2023-04-15T06:19:44;3.30;43.90
10294;DHT22;5192;50.328;7.610;2023-04-15T06:22:12;3.50;43.40
10294;DHT22;5192;50.328;7.610;2023-04-15T06:24:39;3.60;42.80
10294;DHT22;5192;50.328;7.610;2023-04-15T06:27:07;3.70;42.50
10294;DHT22;5192;50.328;7.610;2023-04-15T06:29:32;3.90;41.50
10294;DHT22;5192;50.328;7.610;2023-04-15T06:32:00;4.10;39.40
10294;DHT22;5192;50.328;7.610;2023-04-15T06:34:29;4.10;39.00
10294;DHT22;5192;50.328;7.610;2023-04-15T06:36:57;4.10;37.40
10294;DHT22;5192;50.328;7.610;2023-04-15T06:39:24;4.30;37.70
10294;DHT22;5192;50.328;7.610;2023-04-15T06:41:52;4.30;36.20
10294;DHT22;5192;50.328;7.610;2023-04-15T06:44:18;4.50;35.70
10294;DHT22;5192;50.328;7.610;2023-04-15T06:46:45;4.60;34.00
10294;DHT22;5192;50.328;7.610;2023-04-15T06:49:12;4.60;32.50
10294;DHT22;5192;50.328;7.610;2023-04-15T06:51:41;4.80;31.70
10294;DHT22;5192;50.328;7.610;2023-04-15T06:54:08;4.80;30.00
10294;DHT22;5192;50.328;7.610;2023-04-15T06:56:35;4.90;29.10
10294;DHT22;5192;50.328;7.610;2023-04-15T06:59:00;5.00;29.20
10294;DHT22;5192;50.328;7.610;2023-04-15T07:01:28;5.10;28.70
10294;DHT22;5192;50.328;7.610;2023-04-15T07:03:56;5.30;28.00
10294;DHT22;5192;50.328;7.610;2023-04-15T07:06:22;5.30;27.30
10294;DHT22;5192;50.328;7.610;2023-04-15T07:08:50;5.50;27.70
10294;DHT22;5192;50.328;7.610;2023-04-15T07:11:17;5.60;26.40
10294;DHT22;5192;50.328;7.610;2023-04-15T07:13:45;5.70;25.20
10294;DHT22;5192;50.328;7.610;2023-04-15T07:16:13;5.90;23.60
10294;DHT22;5192;50.328;7.610;2023-04-15T07:18:41;5.90;22.30
10294;DHT22;5192;50.328;7.610;2023-04-15T07:21:09;6.10;22.80
10294;DHT22;5192;50.328;7.610;2023-04-15T07:23:37;6.30;20.60
10294;DHT22;5192;50.328;7.610;2023-04-15T07:26:05;6.30;21.60
10294;DHT22;5192;50.328;7.610;2023-04-15T07:28:33;6.40;20.10
10294;DHT22;5192;50.328;7.610;2023-04-15T07:30:59;6.60;18.80
10294;DHT22;5192;50.328;7.610;2023-04-15T07:33:26;6.70;16.60
10294;DHT22;5192;50.328;7.610;2023-04-15T07:35:53;6.90;13.90
10294;DHT22;5192;50.328;7.610;2023-04-15T07:38:21;7.00;13.50
10294;DHT22;5192;50.328;7.610;2023-04-15T07:40:47;7.20;10.80
10294;DHT22;5192;50.328;7.610;2023-04-15T07:43:15;7.30;9.50
10294;DHT22;5192;50.328;7.610;2023-04-15T07:45:43;7.30;6.00
10294;DHT22;5192;50.328;7.610;2023-04-15T07:48:10;7.50;5.10
10294;DHT22;5192;50.328;7.610;2023-04-15T07:50:38;7.60;4.70
10294;DHT22;5192;50.328;7.610;2023-04-15T07:53:05;7.70;3.40
10294;DHT22;5192;50.328;7.610;2023-04-15T07:55:33;7.70;4.90
10294;DHT22;5192;50.328;7.610;2023-04-15T07:58:02;7.80;5.40
10294;DHT22;5192;50.328;7.610;2023-04-15T08:00:28;7.90;3.30
10294;DHT22;5192;50.328;7.610;2023-04-15T08:02:57;7.90;2.30
10294;DHT22;5192;50.328;7.610;2023-04-15T08:05:25;8.00;2.20
10294;DHT22;5192;50.328;7.610;2023-04-15T08:07:51;8.20;1.50
10294;DHT22;5192;50.328;7.610;2023-04-15T08:10:18;8.40;1.10
10294;DHT22;5192;50.328;7.610;2023-04-15T08:12:46;8.40;1.00
10294;DHT22;5192;50.328;7.610;2023-04-15T08:15:16;8.50;1.00
10294;DHT22;5192;50.328;7.610;2023-04-15T08:17:44;8.60;1.00
10294;DHT22;5192;50.328;7.610;2023-04-15T08:20:11;8.80;1.00
10294;DHT22;5192;50.328;7.610;2023-04-15T08:22:38;8.90;1.00
10294;DHT22;5192;50.328;7.610;2023-04-15T08:25:07;8.90;1.00
10294;DHT22;5192;50.328;7.610;2023-04-15T08:27:35;8.90;1.00
10294;DHT22;5192;50.328;7.610;2023-04-15T08:30:01;9.00;1.00
10294;DHT22;5192;50.328;7.610;2023-04-15T08:32:28;9.00;1.00
10294;DHT22;5192;50.328;7.610;2023-04-15T08:34:56;9.20;1.00
10294;DHT22;5192;50.328;7.610;2023-04-15T08:37:21;9.20;1.00
10294;DHT22;5192;50.328;7.610;2023-04-15T08:39:49;9.40;1.00
10294;DHT22;5192;50.328;7.610;2023-04-15T08:42:31;9.60;1.00
10294;DHT22;5192;50.328;7.610;2023-04-15T08:45:04;9.80;1.00
10294;DHT22;5192;50.328;7.610;2023-04-15T08:47:34;9.80;1.00
10294;DHT22;5192;50.328;7.610;2023-04-15T08:50:03;10.20;1.00
10294;DHT22;5192;50.328;7.610;2023-04-15T08:52:30;10.40;1.00
10294;DHT22;5192;50.328;7.610;2023-04-15T08:54:57;10.50;1.00
10294;DHT22;5192;50.328;7.610;2023-04-15T08:57:29;10.70;1.00
10294;DHT22;5192;50.328;7.610;2023-04-15T08:59:57;10.90;1.00
10294;DHT22;5192;50.328;7.610;2023-04-15T09:02:27;11.10;1.00
10294;DHT22;5192;50.328;7.610;2023-04-15T09:04:54;11.30;1.00
10294;DHT22;5192;50.328;7.610;2023-04-15T09:07:21;11.40;1.00
10294;DHT22;5192;50.328;7.610;2023-04-15T09:09:47;11.60;1.00
10294;DHT22;5192;50.328;7.610;2023-04-15T09:12:19;11.80;1.00
10294;DHT22;5192;50.328;7.610;2023-04-15T09:14:46;11.90;1.00
10294;DHT22;5192;50.328;7.610;2023-04-15T09:17:18;12.00;1.00
10294;DHT22;5192;50.328;7.610;2023-04-15T09:19:47;12.20;1.00
10294;DHT22;5192;50.328;7.610;2023-04-15T09:22:14;12.20;1.00
10294;DHT22;5192;50.328;7.610;2023-04-15T09:24:43;12.20;1.00
10294;DHT22;5192;50.328;7.610;2023-04-15T09:27:15;12.30;1.00
10294;DHT22;5192;50.328;7.610;2023-04-15T09:29:43;12.30;1.00
10294;DHT22;5192;50.328;7.610;2023-04-15T09:32:15;12.30;1.00
10294;DHT22;5192;50.328;7.610;2023-04-15T09:34:43;12.30;1.00
10294;DHT22;5192;50.328;7.610;2023-04-15T09:37:10;12.30;1.00
10294;DHT22;5192;50.328;7.610;2023-04-15T09:39:50;12.40;1.00
10294;DHT22;5192;50.328;7.610;2023-04-15T09:42:17;12.50;1.00
10294;DHT22;5192;50.328;7.610;2023-04-15T09:44:51;12.50;1.00
10294;DHT22;5192;50.328;7.610;2023-04-15T09:47:30;12.60;1.00
10294;DHT22;5192;50.328;7.610;2023-04-15T09:49:58;12.60;1.00
10294;DHT22;5192;50.328;7.610;2023-04-15T09:52:26;12.70;1.00
10294;DHT22;5192;50.328;7.610;2023-04-15T09:54:56;12.70;1.00
10294;DHT22;5192;50.328;7.610;2023-04-15T09:57:23;12.70;1.00
10294;DHT22;5192;50.328;7.610;2023-04-15T09:59:51;12.80;1.00
10294;DHT22;5192;50.328;7.610;2023-04-15T10:02:19;12.90;1.00
10294;DHT22;5192;50.328;7.610;2023-04-15T10:04:51;12.80;1.00
10294;DHT22;5192;50.328;7.610;2023-04-15T10:07:20;13.00;1.00
10294;DHT22;5192;50.328;7.610;2023-04-15T10:09:48;13.10;1.00
10294;DHT22;5192;50.328;7.610;2023-04-15T10:12:19;13.30;1.00
10294;DHT22;5192;50.328;7.610;2023-04-15T10:14:49;13.60;1.00
10294;DHT22;5192;50.328;7.610;2023-04-15T10:17:21;13.60;1.00
10294;DHT22;5192;50.328;7.610;2023-04-15T10:19:52;13.70;1.00
10294;DHT22;5192;50.328;7.610;2023-04-15T10:22:21;13.80;1.00
10294;DHT22;5192;50.328;7.610;2023-04-15T10:24:55;13.80;1.00
10294;DHT22;5192;50.328;7.610;2023-04-15T10:27:22;13.70;1.00
10294;DHT22;5192;50.328;7.610;2023-04-15T10:29:50;13.60;1.00
10294;DHT22;5192;50.328;7.610;2023-04-15T10:32:20;13.70;1.00
10294;DHT22;5192;50.328;7.610;2023-04-15T10:34:47;13.80;1.00
10294;DHT22;5192;50.328;7.610;2023-04-15T10:37:20;13.80;1.00
10294;DHT22;5192;50.328;7.610;2023-04-15T10:39:49;14.00;1.00
10294;DHT22;5192;50.328;7.610;2023-04-15T10:42:18;14.10;1.00
10294;DHT22;5192;50.328;7.610;2023-04-15T10:44:50;14.40;1.00
10294;DHT22;5192;50.328;7.610;2023-04-15T10:47:20;14.50;1.00
10294;DHT22;5192;50.328;7.610;2023-04-15T10:50:00;14.60;1.00
10294;DHT22;5192;50.328;7.610;2023-04-15T10:52:28;14.60;1.00
10294;DHT22;5192;50.328;7.610;2023-04-15T10:55:13;14.70;1.00
10294;DHT22;5192;50.328;7.610;2023-04-15T10:57:41;14.80;1.00
10294;DHT22;5192;50.328;7.610;2023-04-15T11:00:29;14.60;1.00
10294;DHT22;5192;50.328;7.610;2023-04-15T11:03:07;14.60;1.00
10294;DHT22;5192;50.328;7.610;2023-04-15T11:05:50;14.40;1.00
10294;DHT22;5192;50.328;7.610;2023-04-15T11:08:58;14.30;1.00
10294;DHT22;5192;50.328;7.610;2023-04-15T11:14:33;14.20;1.00
10294;DHT22;5192;50.328;7.610;2023-04-15T11:17:02;14.10;1.00
10294;DHT22;5192;50.328;7.610;2023-04-15T11:19:38;14.10;1.00
10294;DHT22;5192;50.328;7.610;2023-04-15T11:22:10;14.10;1.00
10294;DHT22;5192;50.328;7.610;2023-04-15T11:24:49;14.20;1.00
10294;DHT22;5192;50.328;7.610;2023-04-15T11:27:24;14.30;1.00
10294;DHT22;5192;50.328;7.610;2023-04-15T11:29:52;14.40;1.00
10294;DHT22;5192;50.328;7.610;2023-04-15T11:32:20;14.40;1.00
10294;DHT22;5192;50.328;7.610;2023-04-15T11:34:46;14.30;1.00
10294;DHT22;5192;50.328;7.610;2023-04-15T11:37:14;14.20;1.00
10294;DHT22;5192;50.328;7.610;2023-04-15T11:39:41;14.20;1.00
10294;DHT22;5192;50.328;7.610;2023-04-15T11:42:17;14.10;1.00
10294;DHT22;5192;50.328;7.610;2023-04-15T11:44:43;14.10;1.00
10294;DHT22;5192;50.328;7.610;2023-04-15T11:47:26;14.30;1.00
10294;DHT22;5192;50.328;7.610;2023-04-15T11:49:52;14.40;1.00
10294;DHT22;5192;50.328;7.610;2023-04-15T11:52:21;14.40;1.00
10294;DHT22;5192;50.328;7.610;2023-04-15T11:54:48;14.60;1.00
10294;DHT22;5192;50.328;7.610;2023-04-15T11:57:14;14.60;1.00
10294;DHT22;5192;50.328;7.610;2023-04-15T11:59:41;14.50;1.00
10294;DHT22;5192;50.328;7.610;2023-04-15T12:02:12;14.20;1.00
10294;DHT22;5192;50.328;7.610;2023-04-15T12:04:39;14.10;1.00
10294;DHT22;5192;50.328;7.610;2023-04-15T12:07:07;14.20;1.00
10294;DHT22;5192;50.328;7.610;2023-04-15T12:09:37;14.30;1.00
10294;DHT22;5192;50.328;7.610;2023-04-15T12:12:06;14.40;1.00
10294;DHT22;5192;50.328;7.610;2023-04-15T12:14:34;14.60;1.00
10294;DHT22;5192;50.328;7.610;2023-04-15T12:17:05;15.00;1.00
10294;DHT22;5192;50.328;7.610;2023-04-15T12:19:54;15.00;1.00
10294;DHT22;5192;50.328;7.610;2023-04-15T12:22:23;15.00;1.00
10294;DHT22;5192;50.328;7.610;2023-04-15T12:24:55;14.90;1.00
10294;DHT22;5192;50.328;7.610;2023-04-15T12:27:25;14.70;1.00
10294;DHT22;5192;50.328;7.610;2023-04-15T12:30:05;14.30;1.00
10294;DHT22;5192;50.328;7.610;2023-04-15T12:32:37;14.10;1.00
10294;DHT22;5192;50.328;7.610;2023-04-15T12:35:07;14.00;1.00
10294;DHT22;5192;50.328;7.610;2023-04-15T12:37:35;14.00;1.00
10294;DHT22;5192;50.328;7.610;2023-04-15T12:40:02;13.60;1.00
10294;DHT22;5192;50.328;7.610;2023-04-15T12:42:28;13.30;1.00
10294;DHT22;5192;50.328;7.610;2023-04-15T12:44:55;13.10;1.00
10294;DHT22;5192;50.328;7.610;2023-04-15T12:47:23;13.10;1.00
10294;DHT22;5192;50.328;7.610;2023-04-15T12:49:51;13.20;1.00
10294;DHT22;5192;50.328;7.610;2023-04-15T12:52:19;13.00;1.00
10294;DHT22;5192;50.328;7.610;2023-04-15T12:54:47;12.80;1.00
10294;DHT22;5192;50.328;7.610;2023-04-15T12:57:15;12.60;1.00
10294;DHT22;5192;50.328;7.610;2023-04-15T12:59:41;12.60;1.00
10294;DHT22;5192;50.328;7.610;2023-04-15T13:02:09;12.60;1.00
10294;DHT22;5192;50.328;7.610;2023-04-15T13:04:36;12.50;1.00
10294;DHT22;5192;50.328;7.610;2023-04-15T13:07:03;12.50;1.00
10294;DHT22;5192;50.328;7.610;2023-04-15T13:09:31;12.60;1.00
10294;DHT22;5192;50.328;7.610;2023-04-15T13:11:59;12.60;1.00
10294;DHT22;5192;50.328;7.610;2023-04-15T13:14:26;12.60;1.00
10294;DHT22;5192;50.328;7.610;2023-04-15T13:16:56;12.60;1.00
10294;DHT22;5192;50.328;7.610;2023-04-15T13:19:26;12.60;1.00
10294;DHT22;5192;50.328;7.610;2023-04-15T13:21:53;12.60;1.00
10294;DHT22;5192;50.328;7.610;2023-04-15T13:24:20;12.50;1.00
10294;DHT22;5192;50.328;7.610;2023-04-15T13:26:47;12.50;1.00
10294;DHT22;5192;50.328;7.610;2023-04-15T13:29:14;12.50;1.00
10294;DHT22;5192;50.328;7.610;2023-04-15T13:31:41;12.50;1.00
10294;DHT22;5192;50.328;7.610;2023-04-15T13:34:08;12.30;1.00
10294;DHT22;5192;50.328;7.610;2023-04-15T13:36:36;12.10;1.00
10294;DHT22;5192;50.328;7.610;2023-04-15T13:39:03;12.00;1.00
10294;DHT22;5192;50.328;7.610;2023-04-15T13:41:31;11.80;1.00
10294;DHT22;5192;50.328;7.610;2023-04-15T13:43:58;11.70;3.30
10294;DHT22;5192;50.328;7.610;2023-04-15T13:46:24;11.50;1.80
10294;DHT22;5192;50.328;7.610;2023-04-15T13:48:52;11.40;6.20
10294;DHT22;5192;50.328;7.610;2023-04-15T13:51:21;11.40;5.40
10294;DHT22;5192;50.328;7.610;2023-04-15T13:53:46;11.30;6.70
10294;DHT22;5192;50.328;7.610;2023-04-15T13:56:13;11.20;7.60
10294;DHT22;5192;50.328;7.610;2023-04-15T13:58:40;11.10;8.40
10294;DHT22;5192;50.328;7.610;2023-04-15T14:01:07;11.00;8.70
10294;DHT22;5192;50.328;7.610;2023-04-15T14:03:36;11.00;11.10
10294;DHT22;5192;50.328;7.610;2023-04-15T14:06:04;10.90;14.10
10294;DHT22;5192;50.328;7.610;2023-04-15T14:08:33;10.90;14.00
10294;DHT22;5192;50.328;7.610;2023-04-15T14:11:01;10.90;14.10
10294;DHT22;5192;50.328;7.610;2023-04-15T14:13:27;10.80;12.90
10294;DHT22;5192;50.328;7.610;2023-04-15T14:15:57;10.80;14.60
10294;DHT22;5192;50.328;7.610;2023-04-15T14:18:24;10.70;12.80
10294;DHT22;5192;50.328;7.610;2023-04-15T14:20:57;10.60;13.60
10294;DHT22;5192;50.328;7.610;2023-04-15T14:23:23;10.50;17.80
10294;DHT22;5192;50.328;7.610;2023-04-15T14:25:51;10.50;17.10
10294;DHT22;5192;50.328;7.610;2023-04-15T14:28:19;10.50;17.90
10294;DHT22;5192;50.328;7.610;2023-04-15T14:30:46;10.50;19.10
10294;DHT22;5192;50.328;7.610;2023-04-15T14:33:13;10.50;19.10
10294;DHT22;5192;50.328;7.610;2023-04-15T14:35:39;10.40;17.20
10294;DHT22;5192;50.328;7.610;2023-04-15T14:38:06;10.30;18.50
10294;DHT22;5192;50.328;7.610;2023-04-15T14:40:36;10.30;21.10
10294;DHT22;5192;50.328;7.610;2023-04-15T14:43:02;10.30;21.20
10294;DHT22;5192;50.328;7.610;2023-04-15T14:45:30;10.30;23.60
10294;DHT22;5192;50.328;7.610;2023-04-15T14:48:20;10.30;24.90
10294;DHT22;5192;50.328;7.610;2023-04-15T14:50:47;10.20;25.90
10294;DHT22;5192;50.328;7.610;2023-04-15T14:53:14;10.10;24.80
10294;DHT22;5192;50.328;7.610;2023-04-15T14:55:43;10.00;25.30
10294;DHT22;5192;50.328;7.610;2023-04-15T14:58:10;10.00;25.10
10294;DHT22;5192;50.328;7.610;2023-04-15T15:00:38;9.90;27.00
10294;DHT22;5192;50.328;7.610;2023-04-15T15:03:09;9.90;30.20
10294;DHT22;5192;50.328;7.610;2023-04-15T15:05:44;9.80;30.90
10294;DHT22;5192;50.328;7.610;2023-04-15T15:08:17;9.70;33.30
10294;DHT22;5192;50.328;7.610;2023-04-15T15:10:45;9.70;37.90
10294;DHT22;5192;50.328;7.610;2023-04-15T15:13:10;9.70;40.20
10294;DHT22;5192;50.328;7.610;2023-04-15T15:15:36;9.70;40.00
10294;DHT22;5192;50.328;7.610;2023-04-15T15:18:03;9.70;42.90
10294;DHT22;5192;50.328;7.610;2023-04-15T15:20:30;9.70;44.50
10294;DHT22;5192;50.328;7.610;2023-04-15T15:22:57;9.60;43.00
10294;DHT22;5192;50.328;7.610;2023-04-15T15:25:25;9.60;41.40
10294;DHT22;5192;50.328;7.610;2023-04-15T15:27:52;9.60;43.80
10294;DHT22;5192;50.328;7.610;2023-04-15T15:30:20;9.60;46.20
10294;DHT22;5192;50.328;7.610;2023-04-15T15:32:48;9.50;47.20
10294;DHT22;5192;50.328;7.610;2023-04-15T15:35:15;9.60;48.70
10294;DHT22;5192;50.328;7.610;2023-04-15T15:37:43;9.40;53.40
10294;DHT22;5192;50.328;7.610;2023-04-15T15:40:11;9.30;51.50
10294;DHT22;5192;50.328;7.610;2023-04-15T15:42:40;9.20;53.10
10294;DHT22;5192;50.328;7.610;2023-04-15T15:45:09;9.20;53.30
10294;DHT22;5192;50.328;7.610;2023-04-15T15:47:36;9.10;54.50
10294;DHT22;5192;50.328;7.610;2023-04-15T15:50:03;9.10;54.00
10294;DHT22;5192;50.328;7.610;2023-04-15T15:52:31;9.00;57.20
10294;DHT22;5192;50.328;7.610;2023-04-15T15:54:59;8.90;60.10
10294;DHT22;5192;50.328;7.610;2023-04-15T15:57:27;8.90;59.10
10294;DHT22;5192;50.328;7.610;2023-04-15T15:59:55;8.90;59.40
10294;DHT22;5192;50.328;7.610;2023-04-15T16:02:22;8.80;59.60
10294;DHT22;5192;50.328;7.610;2023-04-15T16:04:51;8.80;62.50
10294;DHT22;5192;50.328;7.610;2023-04-15T16:07:17;8.70;64.10
10294;DHT22;5192;50.328;7.610;2023-04-15T16:09:44;8.70;65.50
10294;DHT22;5192;50.328;7.610;2023-04-15T16:12:11;8.60;67.40